TimeEDT,TemperatureF,Dew PointF,Humidity,Sea Level PressureIn,VisibilityMPH,Wind Direction,Wind SpeedMPH,Gust SpeedMPH,PrecipitationIn,Events,Conditions,WindDirDegrees,DateUTC
12:58 AM,51.6,47.8,87,30.26,10.0,Calm,Calm,-,N/A,,Clear,20,2013-04-27 04:58:00
1:58 AM,51.3,47.8,88,30.27,10.0,Calm,Calm,-,N/A,,Clear,350,2013-04-27 05:58:00
2:58 AM,50.0,48.2,94,30.27,10.0,NW,1.2,-,N/A,,Clear,320,2013-04-27 06:58:00
3:58 AM,49.3,47.3,93,30.24,10.0,SE,2.3,-,N/A,,Clear,140,2013-04-27 07:58:00
4:58 AM,49.1,48.2,97,30.25,10.0,NW,4.6,-,N/A,,Clear,320,2013-04-27 08:58:00
5:58 AM,49.3,48.2,96,30.24,10.0,NNW,2.3,-,N/A,,Clear,330,2013-04-27 09:58:00
6:58 AM,51.1,50.7,99,30.25,10.0,North,3.5,-,N/A,,Scattered Clouds,360,2013-04-27 10:58:00
7:58 AM,53.6,53.2,99,30.27,10.0,North,5.8,-,N/A,,Mostly Cloudy,10,2013-04-27 11:58:00
8:58 AM,64.0,55.0,73,30.27,10.0,ESE,5.8,-,N/A,,Clear,110,2013-04-27 12:58:00
9:58 AM,69.3,55.9,62,30.26,10.0,SE,9.2,-,N/A,,Clear,140,2013-04-27 13:58:00
10:58 AM,74.1,58.1,57,30.25,10.0,SE,10.4,-,N/A,,Mostly Cloudy,130,2013-04-27 14:58:00
11:58 AM,76.3,59.7,56,30.24,10.0,SSE,10.4,-,N/A,,Overcast,160,2013-04-27 15:58:00
12:58 PM,78.8,58.1,49,30.23,10.0,SE,11.5,-,N/A,,Scattered Clouds,140,2013-04-27 16:58:00
1:13 PM,78.8,59.0,51,30.21,10.0,SSE,11.5,17.3,N/A,,Mostly Cloudy,150,2013-04-27 17:13:00
1:18 PM,80.6,59.0,48,30.21,10.0,South,10.4,17.3,N/A,,Scattered Clouds,180,2013-04-27 17:18:00
1:58 PM,80.1,57.9,47,30.20,10.0,South,12.7,16.1,N/A,,Partly Cloudy,190,2013-04-27 17:58:00
1:59 PM,80.6,57.2,45,30.18,10.0,South,12.7,-,N/A,,Partly Cloudy,170,2013-04-27 17:59:00
2:58 PM,80.8,58.1,46,30.16,10.0,SSE,9.2,-,N/A,,Mostly Cloudy,160,2013-04-27 18:58:00
3:58 PM,81.7,58.3,45,30.15,10.0,South,12.7,-,N/A,,Mostly Cloudy,190,2013-04-27 19:58:00
4:58 PM,80.4,59.2,48,30.13,10.0,SSE,6.9,-,N/A,,Overcast,160,2013-04-27 20:58:00
5:58 PM,79.3,59.2,50,30.12,10.0,SSE,4.6,-,N/A,,Overcast,150,2013-04-27 21:58:00
6:58 PM,75.9,64.4,67,30.12,10.0,SE,4.6,-,N/A,,Overcast,140,2013-04-27 22:58:00
7:58 PM,73.9,61.3,65,30.10,10.0,SE,5.8,-,N/A,,Clear,140,2013-04-27 23:58:00
8:58 PM,66.0,62.4,88,30.10,10.0,Calm,Calm,-,N/A,,Scattered Clouds,350,2013-04-28 00:58:00
9:58 PM,68.2,59.7,74,30.10,10.0,South,2.3,-,N/A,,Overcast,180,2013-04-28 01:58:00
10:58 PM,70.0,58.3,66,30.09,10.0,SSE,9.2,-,N/A,,Mostly Cloudy,150,2013-04-28 02:58:00
11:02 PM,69.8,59.0,68,30.08,10.0,SSE,9.2,-,N/A,,Light Drizzle,160,2013-04-28 03:02:00
11:11 PM,71.6,57.2,60,30.08,10.0,South,12.7,-,N/A,,Mostly Cloudy,190,2013-04-28 03:11:00
11:58 PM,69.8,60.1,71,30.09,10.0,WSW,2.3,-,0.00,,Clear,240,2013-04-28 03:58:00